sensor_id;sensor_type;location;lat;lon;timestamp;P1;durP1;ratioP1;P2;durP2;ratioP2
75818;SDS011;64453;51.944;9.796;2022-11-20T00:00:40;8.40;;;7.60;;
75818;SDS011;64453;51.944;9.796;2022-11-20T00:03:07;11.50;;;8.40;;
75818;SDS011;64453;51.944;9.796;2022-11-20T00:05:34;11.93;;;9.10;;
75818;SDS011;64453;51.944;9.796;2022-11-20T00:08:01;11.00;;;9.30;;
75818;SDS011;64453;51.944;9.796;2022-11-20T00:10:28;8.67;;;7.60;;
75818;SDS011;64453;51.944;9.796;2022-11-20T00:12:57;7.30;;;6.60;;
75818;SDS011;64453;51.944;9.796;2022-11-20T00:15:26;7.97;;;7.17;;
75818;SDS011;64453;51.944;9.796;2022-11-20T00:17:53;8.73;;;7.83;;
75818;SDS011;64453;51.944;9.796;2022-11-20T00:20:20;9.40;;;8.50;;
75818;SDS011;64453;51.944;9.796;2022-11-20T00:22:47;7.70;;;7.10;;
75818;SDS011;64453;51.944;9.796;2022-11-20T00:25:14;8.27;;;7.20;;
75818;SDS011;64453;51.944;9.796;2022-11-20T00:27:42;7.43;;;6.80;;
75818;SDS011;64453;51.944;9.796;2022-11-20T00:30:09;7.27;;;6.67;;
75818;SDS011;64453;51.944;9.796;2022-11-20T00:32:38;11.77;;;9.90;;
75818;SDS011;64453;51.944;9.796;2022-11-20T00:35:05;11.17;;;9.73;;
75818;SDS011;64453;51.944;9.796;2022-11-20T00:37:33;10.10;;;9.00;;
75818;SDS011;64453;51.944;9.796;2022-11-20T00:40:00;10.00;;;9.00;;
75818;SDS011;64453;51.944;9.796;2022-11-20T00:42:27;8.30;;;7.50;;
75818;SDS011;64453;51.944;9.796;2022-11-20T00:44:54;7.70;;;7.00;;
75818;SDS011;64453;51.944;9.796;2022-11-20T00:47:21;8.47;;;7.67;;
75818;SDS011;64453;51.944;9.796;2022-11-20T00:49:49;10.80;;;8.27;;
75818;SDS011;64453;51.944;9.796;2022-11-20T00:52:16;8.70;;;7.27;;
75818;SDS011;64453;51.944;9.796;2022-11-20T00:54:43;7.37;;;6.67;;
75818;SDS011;64453;51.944;9.796;2022-11-20T00:57:10;7.43;;;6.73;;
75818;SDS011;64453;51.944;9.796;2022-11-20T00:59:37;7.20;;;6.60;;
75818;SDS011;64453;51.944;9.796;2022-11-20T01:02:04;7.57;;;6.83;;
75818;SDS011;64453;51.944;9.796;2022-11-20T01:04:31;8.40;;;7.13;;
75818;SDS011;64453;51.944;9.796;2022-11-20T01:06:59;7.57;;;6.87;;
75818;SDS011;64453;51.944;9.796;2022-11-20T01:09:26;7.37;;;6.70;;
75818;SDS011;64453;51.944;9.796;2022-11-20T01:11:54;7.20;;;6.50;;
75818;SDS011;64453;51.944;9.796;2022-11-20T01:14:21;7.90;;;7.10;;
75818;SDS011;64453;51.944;9.796;2022-11-20T01:16:49;11.60;;;9.70;;
75818;SDS011;64453;51.944;9.796;2022-11-20T01:19:18;11.10;;;9.00;;
75818;SDS011;64453;51.944;9.796;2022-11-20T01:21:48;8.83;;;8.03;;
75818;SDS011;64453;51.944;9.796;2022-11-20T01:24:19;8.80;;;8.00;;
75818;SDS011;64453;51.944;9.796;2022-11-20T01:26:48;9.47;;;8.30;;
75818;SDS011;64453;51.944;9.796;2022-11-20T01:29:17;8.67;;;7.80;;
75818;SDS011;64453;51.944;9.796;2022-11-20T01:31:46;8.20;;;7.40;;
75818;SDS011;64453;51.944;9.796;2022-11-20T01:34:13;7.33;;;6.63;;
75818;SDS011;64453;51.944;9.796;2022-11-20T01:36:44;9.20;;;6.90;;
75818;SDS011;64453;51.944;9.796;2022-11-20T01:39:13;7.73;;;6.87;;
75818;SDS011;64453;51.944;9.796;2022-11-20T01:41:44;6.97;;;6.27;;
75818;SDS011;64453;51.944;9.796;2022-11-20T01:47:33;7.27;;;6.57;;
75818;SDS011;64453;51.944;9.796;2022-11-20T01:50:08;6.27;;;5.67;;
75818;SDS011;64453;51.944;9.796;2022-11-20T01:52:41;6.33;;;5.73;;
75818;SDS011;64453;51.944;9.796;2022-11-20T01:55:12;5.63;;;5.23;;
75818;SDS011;64453;51.944;9.796;2022-11-20T01:57:46;6.97;;;6.37;;
75818;SDS011;64453;51.944;9.796;2022-11-20T02:00:16;8.37;;;6.77;;
75818;SDS011;64453;51.944;9.796;2022-11-20T02:02:46;6.83;;;6.23;;
75818;SDS011;64453;51.944;9.796;2022-11-20T02:05:19;5.67;;;5.17;;
75818;SDS011;64453;51.944;9.796;2022-11-20T02:07:50;5.63;;;5.13;;
75818;SDS011;64453;51.944;9.796;2022-11-20T02:10:19;8.10;;;7.00;;
75818;SDS011;64453;51.944;9.796;2022-11-20T02:12:48;14.00;;;12.60;;
75818;SDS011;64453;51.944;9.796;2022-11-20T02:15:33;5.83;;;5.40;;
75818;SDS011;64453;51.944;9.796;2022-11-20T02:18:00;4.93;;;4.60;;
75818;SDS011;64453;51.944;9.796;2022-11-20T02:20:27;4.63;;;4.23;;
75818;SDS011;64453;51.944;9.796;2022-11-20T02:22:56;5.17;;;4.77;;
75818;SDS011;64453;51.944;9.796;2022-11-20T02:25:27;5.03;;;4.63;;
75818;SDS011;64453;51.944;9.796;2022-11-20T02:27:56;5.40;;;4.90;;
75818;SDS011;64453;51.944;9.796;2022-11-20T02:30:23;5.20;;;4.70;;
75818;SDS011;64453;51.944;9.796;2022-11-20T02:32:50;6.17;;;5.57;;
75818;SDS011;64453;51.944;9.796;2022-11-20T02:38:09;6.47;;;5.40;;
75818;SDS011;64453;51.944;9.796;2022-11-20T02:40:38;7.40;;;6.57;;
75818;SDS011;64453;51.944;9.796;2022-11-20T02:43:05;6.90;;;6.20;;
75818;SDS011;64453;51.944;9.796;2022-11-20T02:45:32;6.37;;;5.77;;
75818;SDS011;64453;51.944;9.796;2022-11-20T02:47:59;5.80;;;5.30;;
75818;SDS011;64453;51.944;9.796;2022-11-20T02:50:26;5.43;;;4.93;;
75818;SDS011;64453;51.944;9.796;2022-11-20T02:52:53;5.83;;;5.33;;
75818;SDS011;64453;51.944;9.796;2022-11-20T02:55:22;4.90;;;4.50;;
75818;SDS011;64453;51.944;9.796;2022-11-20T02:57:50;5.47;;;4.97;;
75818;SDS011;64453;51.944;9.796;2022-11-20T03:00:17;4.60;;;4.30;;
75818;SDS011;64453;51.944;9.796;2022-11-20T03:02:45;4.80;;;4.40;;
75818;SDS011;64453;51.944;9.796;2022-11-20T03:05:12;5.30;;;4.90;;
75818;SDS011;64453;51.944;9.796;2022-11-20T03:07:39;5.00;;;4.47;;
75818;SDS011;64453;51.944;9.796;2022-11-20T03:10:06;5.20;;;4.80;;
75818;SDS011;64453;51.944;9.796;2022-11-20T03:12:34;4.87;;;4.53;;
75818;SDS011;64453;51.944;9.796;2022-11-20T03:15:03;4.97;;;4.07;;
75818;SDS011;64453;51.944;9.796;2022-11-20T03:17:31;4.30;;;4.00;;
75818;SDS011;64453;51.944;9.796;2022-11-20T03:20:00;4.30;;;4.00;;
75818;SDS011;64453;51.944;9.796;2022-11-20T03:22:28;5.13;;;4.73;;
75818;SDS011;64453;51.944;9.796;2022-11-20T03:24:55;4.47;;;4.10;;
75818;SDS011;64453;51.944;9.796;2022-11-20T03:27:22;4.83;;;4.43;;
75818;SDS011;64453;51.944;9.796;2022-11-20T03:29:49;4.13;;;3.93;;
75818;SDS011;64453;51.944;9.796;2022-11-20T03:32:18;4.80;;;4.40;;
75818;SDS011;64453;51.944;9.796;2022-11-20T03:34:45;4.20;;;3.90;;
75818;SDS011;64453;51.944;9.796;2022-11-20T03:37:11;5.67;;;5.17;;
75818;SDS011;64453;51.944;9.796;2022-11-20T03:39:39;4.77;;;4.40;;
75818;SDS011;64453;51.944;9.796;2022-11-20T03:42:06;4.50;;;4.10;;
75818;SDS011;64453;51.944;9.796;2022-11-20T03:44:53;5.00;;;4.50;;
75818;SDS011;64453;51.944;9.796;2022-11-20T03:47:21;4.27;;;3.97;;
75818;SDS011;64453;51.944;9.796;2022-11-20T03:49:48;5.00;;;4.60;;
75818;SDS011;64453;51.944;9.796;2022-11-20T03:52:15;6.07;;;5.57;;
75818;SDS011;64453;51.944;9.796;2022-11-20T03:54:42;5.07;;;4.63;;
75818;SDS011;64453;51.944;9.796;2022-11-20T03:57:09;5.63;;;5.13;;
75818;SDS011;64453;51.944;9.796;2022-11-20T03:59:36;5.03;;;4.70;;
75818;SDS011;64453;51.944;9.796;2022-11-20T04:02:03;4.90;;;4.50;;
75818;SDS011;64453;51.944;9.796;2022-11-20T04:04:32;5.13;;;4.73;;
75818;SDS011;64453;51.944;9.796;2022-11-20T04:06:59;5.00;;;4.60;;
75818;SDS011;64453;51.944;9.796;2022-11-20T04:09:26;4.83;;;4.43;;
75818;SDS011;64453;51.944;9.796;2022-11-20T04:11:53;5.50;;;5.00;;
75818;SDS011;64453;51.944;9.796;2022-11-20T04:14:20;4.30;;;3.97;;
75818;SDS011;64453;51.944;9.796;2022-11-20T04:16:47;4.27;;;3.80;;
75818;SDS011;64453;51.944;9.796;2022-11-20T04:19:15;4.80;;;4.40;;
75818;SDS011;64453;51.944;9.796;2022-11-20T04:21:44;5.30;;;4.80;;
75818;SDS011;64453;51.944;9.796;2022-11-20T04:24:11;4.60;;;4.20;;
75818;SDS011;64453;51.944;9.796;2022-11-20T04:26:38;4.97;;;4.57;;
75818;SDS011;64453;51.944;9.796;2022-11-20T04:29:06;4.00;;;3.70;;
75818;SDS011;64453;51.944;9.796;2022-11-20T04:31:35;4.40;;;4.03;;
75818;SDS011;64453;51.944;9.796;2022-11-20T04:34:03;4.30;;;3.90;;
75818;SDS011;64453;51.944;9.796;2022-11-20T04:36:32;4.63;;;4.27;;
75818;SDS011;64453;51.944;9.796;2022-11-20T04:39:02;5.20;;;4.00;;
75818;SDS011;64453;51.944;9.796;2022-11-20T04:41:31;4.47;;;4.07;;
75818;SDS011;64453;51.944;9.796;2022-11-20T04:44:01;4.20;;;3.87;;
75818;SDS011;64453;51.944;9.796;2022-11-20T04:46:31;4.33;;;3.97;;
75818;SDS011;64453;51.944;9.796;2022-11-20T04:49:00;4.70;;;4.40;;
75818;SDS011;64453;51.944;9.796;2022-11-20T04:51:27;4.30;;;3.90;;
75818;SDS011;64453;51.944;9.796;2022-11-20T04:53:54;4.20;;;3.90;;
75818;SDS011;64453;51.944;9.796;2022-11-20T04:56:23;5.17;;;4.80;;
75818;SDS011;64453;51.944;9.796;2022-11-20T04:58:50;4.30;;;4.00;;
75818;SDS011;64453;51.944;9.796;2022-11-20T05:01:18;4.20;;;3.73;;
75818;SDS011;64453;51.944;9.796;2022-11-20T05:03:47;5.40;;;5.00;;
75818;SDS011;64453;51.944;9.796;2022-11-20T05:06:15;5.60;;;5.10;;
75818;SDS011;64453;51.944;9.796;2022-11-20T05:08:45;5.70;;;5.20;;
75818;SDS011;64453;51.944;9.796;2022-11-20T05:11:12;6.07;;;5.50;;
75818;SDS011;64453;51.944;9.796;2022-11-20T05:13:43;5.07;;;4.60;;
75818;SDS011;64453;51.944;9.796;2022-11-20T05:16:11;4.70;;;4.30;;
75818;SDS011;64453;51.944;9.796;2022-11-20T05:18:40;5.00;;;4.60;;
75818;SDS011;64453;51.944;9.796;2022-11-20T05:21:08;4.97;;;4.57;;
75818;SDS011;64453;51.944;9.796;2022-11-20T05:23:36;5.33;;;4.83;;
75818;SDS011;64453;51.944;9.796;2022-11-20T05:26:04;4.90;;;4.50;;
75818;SDS011;64453;51.944;9.796;2022-11-20T05:28:32;5.20;;;4.80;;
75818;SDS011;64453;51.944;9.796;2022-11-20T05:31:07;5.90;;;5.40;;
75818;SDS011;64453;51.944;9.796;2022-11-20T05:33:36;5.20;;;4.80;;
75818;SDS011;64453;51.944;9.796;2022-11-20T05:36:06;6.10;;;5.10;;
75818;SDS011;64453;51.944;9.796;2022-11-20T05:38:34;5.33;;;4.93;;
75818;SDS011;64453;51.944;9.796;2022-11-20T05:41:05;4.53;;;4.20;;
75818;SDS011;64453;51.944;9.796;2022-11-20T05:43:33;5.07;;;4.60;;
75818;SDS011;64453;51.944;9.796;2022-11-20T05:46:02;4.53;;;4.13;;
75818;SDS011;64453;51.944;9.796;2022-11-20T05:48:32;5.07;;;4.57;;
75818;SDS011;64453;51.944;9.796;2022-11-20T05:51:01;4.57;;;4.17;;
75818;SDS011;64453;51.944;9.796;2022-11-20T05:53:31;4.53;;;4.20;;
75818;SDS011;64453;51.944;9.796;2022-11-20T05:55:59;4.73;;;3.90;;
75818;SDS011;64453;51.944;9.796;2022-11-20T05:58:27;3.90;;;3.60;;
75818;SDS011;64453;51.944;9.796;2022-11-20T06:00:54;4.53;;;4.13;;
75818;SDS011;64453;51.944;9.796;2022-11-20T06:03:31;4.20;;;3.90;;
75818;SDS011;64453;51.944;9.796;2022-11-20T06:05:58;4.40;;;4.10;;
75818;SDS011;64453;51.944;9.796;2022-11-20T06:08:25;4.60;;;4.20;;
75818;SDS011;64453;51.944;9.796;2022-11-20T06:10:52;4.90;;;4.33;;
75818;SDS011;64453;51.944;9.796;2022-11-20T06:13:20;4.20;;;3.83;;
75818;SDS011;64453;51.944;9.796;2022-11-20T06:15:48;4.80;;;4.43;;
75818;SDS011;64453;51.944;9.796;2022-11-20T06:18:15;4.60;;;4.20;;
75818;SDS011;64453;51.944;9.796;2022-11-20T06:20:44;4.10;;;3.80;;
75818;SDS011;64453;51.944;9.796;2022-11-20T06:23:11;4.00;;;3.70;;
75818;SDS011;64453;51.944;9.796;2022-11-20T06:25:40;4.17;;;3.87;;
75818;SDS011;64453;51.944;9.796;2022-11-20T06:28:08;4.10;;;3.80;;
75818;SDS011;64453;51.944;9.796;2022-11-20T06:30:36;4.50;;;4.17;;
75818;SDS011;64453;51.944;9.796;2022-11-20T06:33:03;4.87;;;4.20;;
75818;SDS011;64453;51.944;9.796;2022-11-20T06:35:30;4.53;;;4.10;;
75818;SDS011;64453;51.944;9.796;2022-11-20T06:37:59;4.70;;;4.30;;
75818;SDS011;64453;51.944;9.796;2022-11-20T06:40:26;4.80;;;4.40;;
75818;SDS011;64453;51.944;9.796;2022-11-20T06:42:53;4.27;;;3.87;;
75818;SDS011;64453;51.944;9.796;2022-11-20T06:45:20;4.70;;;4.30;;
75818;SDS011;64453;51.944;9.796;2022-11-20T06:47:48;5.20;;;4.80;;
75818;SDS011;64453;51.944;9.796;2022-11-20T06:50:15;5.07;;;4.67;;
75818;SDS011;64453;51.944;9.796;2022-11-20T06:52:42;5.70;;;5.20;;
75818;SDS011;64453;51.944;9.796;2022-11-20T06:55:10;12.80;;;11.40;;
75818;SDS011;64453;51.944;9.796;2022-11-20T06:57:37;14.40;;;12.90;;
75818;SDS011;64453;51.944;9.796;2022-11-20T07:00:05;10.30;;;8.57;;
75818;SDS011;64453;51.944;9.796;2022-11-20T07:02:34;8.93;;;8.13;;
75818;SDS011;64453;51.944;9.796;2022-11-20T07:05:01;5.83;;;5.33;;
75818;SDS011;64453;51.944;9.796;2022-11-20T07:07:28;5.40;;;4.90;;
75818;SDS011;64453;51.944;9.796;2022-11-20T07:09:55;5.00;;;4.50;;
75818;SDS011;64453;51.944;9.796;2022-11-20T07:12:24;4.80;;;4.40;;
75818;SDS011;64453;51.944;9.796;2022-11-20T07:14:51;5.40;;;4.90;;
75818;SDS011;64453;51.944;9.796;2022-11-20T07:17:18;6.30;;;5.70;;
75818;SDS011;64453;51.944;9.796;2022-11-20T07:19:45;6.93;;;6.43;;
75818;SDS011;64453;51.944;9.796;2022-11-20T07:22:12;5.20;;;4.80;;
75818;SDS011;64453;51.944;9.796;2022-11-20T07:24:39;5.90;;;5.40;;
75818;SDS011;64453;51.944;9.796;2022-11-20T07:27:06;5.70;;;5.20;;
75818;SDS011;64453;51.944;9.796;2022-11-20T07:29:34;5.67;;;5.17;;
75818;SDS011;64453;51.944;9.796;2022-11-20T07:32:01;6.00;;;5.50;;
75818;SDS011;64453;51.944;9.796;2022-11-20T07:34:30;5.60;;;5.20;;
75818;SDS011;64453;51.944;9.796;2022-11-20T07:36:57;6.30;;;5.70;;
75818;SDS011;64453;51.944;9.796;2022-11-20T07:39:24;5.60;;;5.17;;
75818;SDS011;64453;51.944;9.796;2022-11-20T07:41:51;5.83;;;5.33;;
75818;SDS011;64453;51.944;9.796;2022-11-20T07:44:19;6.20;;;5.70;;
75818;SDS011;64453;51.944;9.796;2022-11-20T07:46:47;6.40;;;5.80;;
75818;SDS011;64453;51.944;9.796;2022-11-20T07:49:14;6.87;;;6.37;;
75818;SDS011;64453;51.944;9.796;2022-11-20T07:51:41;6.90;;;6.20;;
75818;SDS011;64453;51.944;9.796;2022-11-20T07:54:08;7.30;;;6.70;;
75818;SDS011;64453;51.944;9.796;2022-11-20T07:56:35;7.50;;;6.80;;
75818;SDS011;64453;51.944;9.796;2022-11-20T07:59:02;8.40;;;7.70;;
75818;SDS011;64453;51.944;9.796;2022-11-20T08:01:30;9.63;;;8.73;;
75818;SDS011;64453;51.944;9.796;2022-11-20T08:03:58;9.03;;;8.23;;
75818;SDS011;64453;51.944;9.796;2022-11-20T08:06:25;10.80;;;9.80;;
75818;SDS011;64453;51.944;9.796;2022-11-20T08:08:52;10.83;;;9.80;;
75818;SDS011;64453;51.944;9.796;2022-11-20T08:11:19;11.10;;;9.50;;
75818;SDS011;64453;51.944;9.796;2022-11-20T08:14:04;13.33;;;10.53;;
75818;SDS011;64453;51.944;9.796;2022-11-20T08:16:41;12.27;;;11.10;;
75818;SDS011;64453;51.944;9.796;2022-11-20T08:19:11;12.87;;;11.60;;
75818;SDS011;64453;51.944;9.796;2022-11-20T08:21:39;15.10;;;13.33;;
75818;SDS011;64453;51.944;9.796;2022-11-20T08:24:06;14.80;;;13.40;;
75818;SDS011;64453;51.944;9.796;2022-11-20T08:26:34;15.00;;;13.60;;
75818;SDS011;64453;51.944;9.796;2022-11-20T08:29:03;16.50;;;14.20;;
75818;SDS011;64453;51.944;9.796;2022-11-20T08:31:31;14.73;;;13.33;;
75818;SDS011;64453;51.944;9.796;2022-11-20T08:33:58;16.10;;;12.90;;
75818;SDS011;64453;51.944;9.796;2022-11-20T08:36:28;14.70;;;13.30;;
75818;SDS011;64453;51.944;9.796;2022-11-20T08:38:55;16.00;;;14.30;;
75818;SDS011;64453;51.944;9.796;2022-11-20T08:41:22;17.53;;;15.77;;
75818;SDS011;64453;51.944;9.796;2022-11-20T08:43:53;16.03;;;14.33;;
75818;SDS011;64453;51.944;9.796;2022-11-20T08:46:22;16.70;;;15.10;;
75818;SDS011;64453;51.944;9.796;2022-11-20T08:48:50;17.00;;;15.33;;
75818;SDS011;64453;51.944;9.796;2022-11-20T08:51:18;18.20;;;16.40;;
75818;SDS011;64453;51.944;9.796;2022-11-20T08:53:47;17.30;;;15.50;;
75818;SDS011;64453;51.944;9.796;2022-11-20T08:56:14;15.53;;;14.03;;
75818;SDS011;64453;51.944;9.796;2022-11-20T08:58:42;15.10;;;13.60;;
75818;SDS011;64453;51.944;9.796;2022-11-20T09:01:09;15.40;;;13.90;;
75818;SDS011;64453;51.944;9.796;2022-11-20T09:03:36;14.73;;;13.23;;
75818;SDS011;64453;51.944;9.796;2022-11-20T09:06:04;15.50;;;14.00;;
75818;SDS011;64453;51.944;9.796;2022-11-20T09:08:33;15.87;;;14.27;;
75818;SDS011;64453;51.944;9.796;2022-11-20T09:11:03;14.97;;;13.37;;
75818;SDS011;64453;51.944;9.796;2022-11-20T09:13:31;14.63;;;13.23;;
75818;SDS011;64453;51.944;9.796;2022-11-20T09:16:01;15.73;;;14.20;;
75818;SDS011;64453;51.944;9.796;2022-11-20T09:18:31;15.20;;;13.70;;
75818;SDS011;64453;51.944;9.796;2022-11-20T09:20:59;16.30;;;14.70;;
75818;SDS011;64453;51.944;9.796;2022-11-20T09:23:30;14.17;;;12.93;;
75818;SDS011;64453;51.944;9.796;2022-11-20T09:26:02;14.23;;;12.90;;
75818;SDS011;64453;51.944;9.796;2022-11-20T09:28:30;14.40;;;13.00;;
75818;SDS011;64453;51.944;9.796;2022-11-20T09:30:58;13.80;;;12.50;;
75818;SDS011;64453;51.944;9.796;2022-11-20T09:33:26;14.60;;;13.20;;
75818;SDS011;64453;51.944;9.796;2022-11-20T09:35:53;13.57;;;12.17;;
75818;SDS011;64453;51.944;9.796;2022-11-20T09:38:20;14.13;;;12.73;;
75818;SDS011;64453;51.944;9.796;2022-11-20T09:40:49;13.67;;;12.37;;
75818;SDS011;64453;51.944;9.796;2022-11-20T09:43:26;14.40;;;13.00;;
75818;SDS011;64453;51.944;9.796;2022-11-20T09:46:07;14.23;;;12.80;;
75818;SDS011;64453;51.944;9.796;2022-11-20T09:51:39;15.10;;;13.60;;
75818;SDS011;64453;51.944;9.796;2022-11-20T09:54:16;13.90;;;12.60;;
75818;SDS011;64453;51.944;9.796;2022-11-20T09:56:45;14.70;;;13.27;;
75818;SDS011;64453;51.944;9.796;2022-11-20T09:59:26;13.63;;;12.30;;
75818;SDS011;64453;51.944;9.796;2022-11-20T10:02:11;13.03;;;11.73;;
75818;SDS011;64453;51.944;9.796;2022-11-20T10:04:47;14.00;;;12.77;;
75818;SDS011;64453;51.944;9.796;2022-11-20T10:07:20;12.03;;;10.83;;
75818;SDS011;64453;51.944;9.796;2022-11-20T10:09:51;13.47;;;12.17;;
75818;SDS011;64453;51.944;9.796;2022-11-20T10:12:23;13.40;;;12.10;;
75818;SDS011;64453;51.944;9.796;2022-11-20T10:15:04;14.50;;;12.83;;
75818;SDS011;64453;51.944;9.796;2022-11-20T10:17:55;13.60;;;12.30;;
75818;SDS011;64453;51.944;9.796;2022-11-20T10:20:40;13.57;;;12.27;;
75818;SDS011;64453;51.944;9.796;2022-11-20T10:23:18;12.63;;;11.43;;
75818;SDS011;64453;51.944;9.796;2022-11-20T10:26:17;14.10;;;12.70;;
75818;SDS011;64453;51.944;9.796;2022-11-20T10:28:53;12.53;;;11.33;;
75818;SDS011;64453;51.944;9.796;2022-11-20T10:31:36;12.93;;;11.73;;
75818;SDS011;64453;51.944;9.796;2022-11-20T10:34:06;15.37;;;13.83;;
75818;SDS011;64453;51.944;9.796;2022-11-20T10:36:44;16.47;;;14.77;;
75818;SDS011;64453;51.944;9.796;2022-11-20T10:39:17;15.00;;;13.50;;
75818;SDS011;64453;51.944;9.796;2022-11-20T10:41:53;15.00;;;13.50;;
75818;SDS011;64453;51.944;9.796;2022-11-20T10:44:21;14.60;;;13.10;;
75818;SDS011;64453;51.944;9.796;2022-11-20T10:47:12;14.30;;;12.87;;
75818;SDS011;64453;51.944;9.796;2022-11-20T10:49:42;14.10;;;12.80;;
75818;SDS011;64453;51.944;9.796;2022-11-20T10:52:13;14.50;;;12.97;;
75818;SDS011;64453;51.944;9.796;2022-11-20T10:54:49;14.17;;;12.87;;
75818;SDS011;64453;51.944;9.796;2022-11-20T10:57:31;15.20;;;13.60;;
75818;SDS011;64453;51.944;9.796;2022-11-20T11:00:15;15.60;;;13.17;;
75818;SDS011;64453;51.944;9.796;2022-11-20T11:02:45;15.03;;;13.60;;
75818;SDS011;64453;51.944;9.796;2022-11-20T11:05:17;16.13;;;14.43;;
75818;SDS011;64453;51.944;9.796;2022-11-20T11:07:56;15.70;;;13.83;;
75818;SDS011;64453;51.944;9.796;2022-11-20T11:10:26;17.67;;;15.87;;
75818;SDS011;64453;51.944;9.796;2022-11-20T11:13:01;16.93;;;15.23;;
75818;SDS011;64453;51.944;9.796;2022-11-20T11:15:29;18.13;;;16.33;;
75818;SDS011;64453;51.944;9.796;2022-11-20T11:18:07;17.70;;;15.80;;
75818;SDS011;64453;51.944;9.796;2022-11-20T11:20:35;16.07;;;14.47;;
75818;SDS011;64453;51.944;9.796;2022-11-20T11:23:03;15.67;;;14.07;;
75818;SDS011;64453;51.944;9.796;2022-11-20T11:25:31;15.63;;;14.13;;
75818;SDS011;64453;51.944;9.796;2022-11-20T11:28:01;15.93;;;14.40;;
75818;SDS011;64453;51.944;9.796;2022-11-20T11:30:40;15.60;;;14.00;;
75818;SDS011;64453;51.944;9.796;2022-11-20T11:33:11;16.30;;;14.43;;
75818;SDS011;64453;51.944;9.796;2022-11-20T11:35:53;14.80;;;13.30;;
75818;SDS011;64453;51.944;9.796;2022-11-20T11:38:28;15.03;;;13.27;;
75818;SDS011;64453;51.944;9.796;2022-11-20T11:41:00;14.20;;;12.80;;
75818;SDS011;64453;51.944;9.796;2022-11-20T11:43:30;14.87;;;13.47;;
75818;SDS011;64453;51.944;9.796;2022-11-20T11:46:27;15.13;;;13.63;;
75818;SDS011;64453;51.944;9.796;2022-11-20T11:49:00;16.60;;;14.90;;
75818;SDS011;64453;51.944;9.796;2022-11-20T11:51:39;15.67;;;14.17;;
75818;SDS011;64453;51.944;9.796;2022-11-20T11:54:19;14.80;;;13.40;;
75818;SDS011;64453;51.944;9.796;2022-11-20T11:56:50;15.87;;;14.17;;
75818;SDS011;64453;51.944;9.796;2022-11-20T11:59:21;14.53;;;13.10;;
75818;SDS011;64453;51.944;9.796;2022-11-20T12:01:54;17.40;;;15.53;;
75818;SDS011;64453;51.944;9.796;2022-11-20T12:04:33;19.60;;;17.30;;
75818;SDS011;64453;51.944;9.796;2022-11-20T12:07:10;20.43;;;17.83;;
75818;SDS011;64453;51.944;9.796;2022-11-20T12:09:43;16.67;;;15.07;;
75818;SDS011;64453;51.944;9.796;2022-11-20T12:12:17;17.60;;;15.70;;
75818;SDS011;64453;51.944;9.796;2022-11-20T12:14:47;16.20;;;14.60;;
75818;SDS011;64453;51.944;9.796;2022-11-20T12:17:17;17.37;;;15.57;;
75818;SDS011;64453;51.944;9.796;2022-11-20T12:19:46;17.77;;;15.87;;
75818;SDS011;64453;51.944;9.796;2022-11-20T12:22:16;15.87;;;14.17;;
75818;SDS011;64453;51.944;9.796;2022-11-20T12:24:57;16.73;;;15.03;;
75818;SDS011;64453;51.944;9.796;2022-11-20T12:27:43;16.33;;;14.63;;
75818;SDS011;64453;51.944;9.796;2022-11-20T12:30:28;15.17;;;13.60;;
75818;SDS011;64453;51.944;9.796;2022-11-20T12:35:56;15.60;;;14.10;;
75818;SDS011;64453;51.944;9.796;2022-11-20T12:38:39;16.10;;;14.50;;
75818;SDS011;64453;51.944;9.796;2022-11-20T12:41:23;15.77;;;14.27;;
75818;SDS011;64453;51.944;9.796;2022-11-20T12:44:33;15.33;;;13.73;;
75818;SDS011;64453;51.944;9.796;2022-11-20T12:47:39;14.43;;;12.93;;
75818;SDS011;64453;51.944;9.796;2022-11-20T12:50:28;16.80;;;15.10;;
75818;SDS011;64453;51.944;9.796;2022-11-20T12:53:09;14.67;;;13.13;;
75818;SDS011;64453;51.944;9.796;2022-11-20T12:55:49;14.87;;;13.43;;
75818;SDS011;64453;51.944;9.796;2022-11-20T12:58:24;14.10;;;12.60;;
75818;SDS011;64453;51.944;9.796;2022-11-20T13:01:03;14.17;;;12.73;;
75818;SDS011;64453;51.944;9.796;2022-11-20T13:03:59;14.10;;;12.70;;
75818;SDS011;64453;51.944;9.796;2022-11-20T13:06:43;15.93;;;14.33;;
75818;SDS011;64453;51.944;9.796;2022-11-20T13:09:13;14.67;;;13.17;;
75818;SDS011;64453;51.944;9.796;2022-11-20T13:11:44;14.30;;;12.90;;
75818;SDS011;64453;51.944;9.796;2022-11-20T13:14:21;15.50;;;14.00;;
75818;SDS011;64453;51.944;9.796;2022-11-20T13:16:58;14.73;;;13.30;;
75818;SDS011;64453;51.944;9.796;2022-11-20T13:19:31;14.33;;;13.03;;
75818;SDS011;64453;51.944;9.796;2022-11-20T13:21:59;14.07;;;12.77;;
75818;SDS011;64453;51.944;9.796;2022-11-20T13:24:28;14.43;;;12.90;;
75818;SDS011;64453;51.944;9.796;2022-11-20T13:27:04;17.20;;;15.50;;
75818;SDS011;64453;51.944;9.796;2022-11-20T13:29:46;15.60;;;14.07;;
75818;SDS011;64453;51.944;9.796;2022-11-20T13:32:26;16.20;;;14.50;;
75818;SDS011;64453;51.944;9.796;2022-11-20T13:34:58;17.80;;;13.90;;
75818;SDS011;64453;51.944;9.796;2022-11-20T13:37:28;15.47;;;13.93;;
75818;SDS011;64453;51.944;9.796;2022-11-20T13:40:19;15.80;;;14.30;;
75818;SDS011;64453;51.944;9.796;2022-11-20T13:42:54;13.70;;;12.43;;
75818;SDS011;64453;51.944;9.796;2022-11-20T13:45:29;15.87;;;14.23;;
75818;SDS011;64453;51.944;9.796;2022-11-20T13:47:59;15.87;;;14.30;;
75818;SDS011;64453;51.944;9.796;2022-11-20T13:50:40;15.60;;;14.00;;
75818;SDS011;64453;51.944;9.796;2022-11-20T13:53:24;15.70;;;14.10;;
75818;SDS011;64453;51.944;9.796;2022-11-20T13:56:05;13.80;;;12.50;;
75818;SDS011;64453;51.944;9.796;2022-11-20T13:58:44;15.40;;;13.90;;
75818;SDS011;64453;51.944;9.796;2022-11-20T14:01:22;15.20;;;13.70;;
75818;SDS011;64453;51.944;9.796;2022-11-20T14:03:52;17.20;;;15.60;;
75818;SDS011;64453;51.944;9.796;2022-11-20T14:06:23;16.00;;;14.50;;
75818;SDS011;64453;51.944;9.796;2022-11-20T14:08:53;15.10;;;13.60;;
75818;SDS011;64453;51.944;9.796;2022-11-20T14:11:23;15.63;;;14.13;;
75818;SDS011;64453;51.944;9.796;2022-11-20T14:13:56;15.73;;;14.30;;
75818;SDS011;64453;51.944;9.796;2022-11-20T14:16:26;14.83;;;13.43;;
75818;SDS011;64453;51.944;9.796;2022-11-20T14:18:56;14.63;;;13.13;;
75818;SDS011;64453;51.944;9.796;2022-11-20T14:21:27;17.90;;;16.10;;
75818;SDS011;64453;51.944;9.796;2022-11-20T14:24:05;20.47;;;18.37;;
75818;SDS011;64453;51.944;9.796;2022-11-20T14:26:34;22.13;;;19.90;;
75818;SDS011;64453;51.944;9.796;2022-11-20T14:29:11;24.33;;;21.80;;
75818;SDS011;64453;51.944;9.796;2022-11-20T14:31:39;19.87;;;17.87;;
75818;SDS011;64453;51.944;9.796;2022-11-20T14:34:10;16.70;;;15.00;;
75818;SDS011;64453;51.944;9.796;2022-11-20T14:36:42;16.77;;;15.17;;
75818;SDS011;64453;51.944;9.796;2022-11-20T14:39:10;17.97;;;16.17;;
75818;SDS011;64453;51.944;9.796;2022-11-20T14:41:49;17.60;;;15.80;;
75818;SDS011;64453;51.944;9.796;2022-11-20T14:44:17;20.60;;;18.50;;
75818;SDS011;64453;51.944;9.796;2022-11-20T14:46:48;20.33;;;18.33;;
75818;SDS011;64453;51.944;9.796;2022-11-20T14:49:17;18.17;;;16.37;;
75818;SDS011;64453;51.944;9.796;2022-11-20T14:51:44;17.83;;;16.13;;
75818;SDS011;64453;51.944;9.796;2022-11-20T14:54:12;16.67;;;14.97;;
75818;SDS011;64453;51.944;9.796;2022-11-20T14:56:44;17.30;;;15.53;;
75818;SDS011;64453;51.944;9.796;2022-11-20T14:59:22;17.10;;;15.50;;
75818;SDS011;64453;51.944;9.796;2022-11-20T15:01:54;18.90;;;16.90;;
75818;SDS011;64453;51.944;9.796;2022-11-20T15:04:23;16.80;;;15.10;;
75818;SDS011;64453;51.944;9.796;2022-11-20T15:06:51;17.10;;;15.40;;
75818;SDS011;64453;51.944;9.796;2022-11-20T15:09:19;16.90;;;15.27;;